Time;durP1;ratioP1;P1;durP2;ratioP2;P2;SDS_P1;SDS_P2;PMS_P1;PMS_P2;Temp;Humidity;BMP_temperature;BMP_pressure;BME280_temperature;BME280_humidity;BME280_pressure;Samples;Min_cycle;Max_cycle;Signal;HPM_P1;HPM_P2
2022/02/15 00:01:20;;;;;;;6.65;6.03;;;7.70;70.20;;;;;;4979189;28;20038;-66
2022/02/15 00:03:46;;;;;;;8.20;6.68;;;7.60;70.30;;;;;;4977976;28;20031;-66
2022/02/15 00:06:11;;;;;;;9.15;7.30;;;7.60;70.60;;;;;;4978341;28;20521;-66
2022/02/15 00:08:37;;;;;;;8.90;7.15;;;7.60;70.70;;;;;;4978442;28;20553;-66
2022/02/15 00:11:03;;;;;;;8.38;6.63;;;7.60;70.80;;;;;;4976168;28;20031;-66
2022/02/15 00:13:28;;;;;;;8.68;7.50;;;7.50;70.80;;;;;;4977238;28;20030;-67
2022/02/15 00:15:54;;;;;;;9.15;6.95;;;7.50;71.00;;;;;;4978991;28;21057;-67
2022/02/15 00:18:20;;;;;;;9.38;7.45;;;7.50;71.20;;;;;;4977328;28;20035;-66
2022/02/15 00:20:45;;;;;;;8.13;7.15;;;7.50;72.10;;;;;;4977430;28;20037;-66
2022/02/15 00:23:11;;;;;;;9.63;7.38;;;7.50;71.30;;;;;;4979310;28;20050;-66
2022/02/15 00:25:37;;;;;;;8.15;7.30;;;7.40;71.40;;;;;;4976414;28;20502;-66
2022/02/15 00:28:04;;;;;;;9.02;7.32;;;7.40;71.50;;;;;;4977818;28;20073;-66
2022/02/15 00:30:29;;;;;;;8.25;7.03;;;7.40;71.60;;;;;;4974621;28;20080;-66
2022/02/15 00:32:55;;;;;;;8.77;7.22;;;7.40;71.70;;;;;;4978579;28;20039;-66
2022/02/15 00:35:20;;;;;;;7.93;7.10;;;7.40;71.80;;;;;;4977715;28;20425;-66
2022/02/15 00:37:46;;;;;;;9.70;7.70;;;7.40;71.90;;;;;;4976197;28;20054;-67
2022/02/15 00:40:12;;;;;;;9.10;7.88;;;7.30;71.80;;;;;;4977634;28;20468;-67
2022/02/15 00:42:39;;;;;;;9.75;7.38;;;7.30;71.80;;;;;;4974490;28;20054;-66
2022/02/15 00:45:07;;;;;;;11.95;7.55;;;7.30;72.00;;;;;;4979244;28;20035;-67
2022/02/15 00:47:33;;;;;;;8.93;7.80;;;7.30;72.20;;;;;;4976600;28;20061;-66
2022/02/15 00:49:59;;;;;;;9.48;7.63;;;7.20;72.30;;;;;;4978185;28;20042;-66
2022/02/15 00:52:26;;;;;;;8.23;7.30;;;7.20;72.40;;;;;;4976084;28;20093;-67
2022/02/15 00:54:55;;;;;;;9.18;7.38;;;7.20;72.30;;;;;;4980232;28;20441;-66
2022/02/15 00:57:24;;;;;;;9.50;7.38;;;7.20;72.30;;;;;;4976209;28;20529;-66
2022/02/15 00:59:51;;;;;;;8.80;7.55;;;7.20;72.40;;;;;;4978114;28;20567;-66
2022/02/15 01:02:17;;;;;;;9.63;7.72;;;7.20;72.60;;;;;;4975983;28;20035;-67
2022/02/15 01:04:44;;;;;;;9.75;7.97;;;7.20;72.70;;;;;;4978589;28;20045;-67
2022/02/15 01:07:10;;;;;;;9.50;7.90;;;7.20;72.80;;;;;;4976770;28;20125;-66
2022/02/15 01:09:35;;;;;;;9.38;7.10;;;7.20;72.80;;;;;;4977279;28;20644;-67
2022/02/15 01:12:02;;;;;;;8.93;7.57;;;7.20;73.00;;;;;;4977676;28;20057;-67
2022/02/15 01:14:28;;;;;;;9.10;7.50;;;7.20;73.10;;;;;;4974948;28;20042;-67
2022/02/15 01:16:53;;;;;;;8.75;7.70;;;7.20;73.10;;;;;;4979040;28;20093;-66
2022/02/15 01:19:19;;;;;;;12.35;8.20;;;7.20;73.20;;;;;;4972852;28;20069;-67
2022/02/15 01:21:45;;;;;;;10.32;8.10;;;7.20;73.00;;;;;;4975793;28;20034;-67
2022/02/15 01:24:11;;;;;;;8.63;7.70;;;7.20;73.20;;;;;;4977247;28;20047;-66
2022/02/15 01:26:36;;;;;;;10.77;8.02;;;7.20;73.20;;;;;;4975760;28;20671;-67
2022/02/15 01:29:03;;;;;;;10.68;7.50;;;7.20;73.30;;;;;;4975974;28;20077;-66
2022/02/15 01:31:29;;;;;;;9.30;7.85;;;7.20;73.50;;;;;;4976584;28;20038;-67
2022/02/15 01:33:54;;;;;;;10.15;8.70;;;7.20;73.60;;;;;;4977706;28;20034;-67
2022/02/15 01:36:20;;;;;;;10.57;8.85;;;7.10;73.70;;;;;;4976074;28;20310;-67
2022/02/15 01:38:46;;;;;;;10.93;8.25;;;7.10;73.70;;;;;;4980546;28;20514;-67
2022/02/15 01:41:11;;;;;;;10.27;8.30;;;7.10;73.90;;;;;;4976017;28;20057;-67
2022/02/15 01:43:38;;;;;;;9.55;8.38;;;7.10;74.00;;;;;;4975603;28;20079;-67
2022/02/15 01:46:05;;;;;;;11.18;7.78;;;7.10;73.90;;;;;;4978731;28;20057;-66
2022/02/15 01:48:31;;;;;;;10.95;8.65;;;7.10;74.00;;;;;;4975671;28;20034;-67
2022/02/15 01:50:58;;;;;;;9.32;7.55;;;7.10;74.00;;;;;;4974812;28;20042;-66
2022/02/15 01:53:24;;;;;;;9.57;8.10;;;7.10;74.00;;;;;;4975578;28;20072;-67
2022/02/15 01:55:50;;;;;;;9.93;7.90;;;7.10;74.20;;;;;;4978145;28;20034;-67
2022/02/15 01:58:17;;;;;;;9.52;8.20;;;7.10;74.20;;;;;;4974465;28;20401;-67
2022/02/15 02:00:43;;;;;;;9.63;8.10;;;7.10;74.40;;;;;;4978416;28;20404;-66
2022/02/15 02:03:08;;;;;;;10.00;7.93;;;7.10;74.40;;;;;;4977044;28;20049;-65
2022/02/15 02:05:49;;;;;;;11.27;8.32;;;7.10;74.50;;;;;;4977544;28;20070;-66
2022/02/15 02:08:17;;;;;;;10.32;7.85;;;7.10;74.40;;;;;;4972551;28;20046;-66
2022/02/15 02:10:43;;;;;;;8.85;7.45;;;7.10;74.40;;;;;;4975546;28;20405;-66
2022/02/15 02:13:09;;;;;;;8.25;7.22;;;7.10;74.40;;;;;;4975991;28;20027;-66
2022/02/15 02:15:35;;;;;;;8.90;7.10;;;7.10;74.40;;;;;;4975219;28;20046;-67
2022/02/15 02:18:01;;;;;;;8.23;7.10;;;7.10;74.20;;;;;;4989457;28;20569;-66
2022/02/15 02:20:26;;;;;;;8.98;7.45;;;7.10;74.20;;;;;;4976190;28;20153;-67
2022/02/15 02:22:52;;;;;;;7.53;6.55;;;7.20;74.40;;;;;;4976171;28;20386;-66
2022/02/15 02:25:20;;;;;;;7.90;7.00;;;7.20;74.40;;;;;;4975065;28;20034;-67
2022/02/15 02:27:46;;;;;;;8.18;6.68;;;7.10;74.40;;;;;;4974834;28;20032;-66
2022/02/15 02:30:12;;;;;;;8.00;6.70;;;7.10;74.40;;;;;;4976050;28;20057;-67
2022/02/15 02:32:38;;;;;;;8.13;6.88;;;7.20;74.50;;;;;;4975149;28;20061;-67
2022/02/15 02:35:05;;;;;;;8.27;7.00;;;7.10;74.40;;;;;;4973890;28;20498;-65
2022/02/15 02:37:32;;;;;;;7.78;6.93;;;7.10;74.30;;;;;;4978886;28;20027;-66
2022/02/15 02:40:00;;;;;;;7.97;6.82;;;7.10;74.40;;;;;;4976209;28;20506;-67
2022/02/15 02:42:26;;;;;;;7.38;6.53;;;7.10;74.50;;;;;;4973023;28;20042;-66
2022/02/15 02:44:55;;;;;;;9.60;6.85;;;7.10;74.50;;;;;;4976329;28;20031;-67
2022/02/15 02:47:21;;;;;;;8.85;6.72;;;7.10;74.70;;;;;;4974420;28;20045;-67
2022/02/15 02:49:47;;;;;;;9.55;7.00;;;7.10;74.70;;;;;;4978130;28;20057;-66
2022/02/15 02:52:13;;;;;;;7.65;6.72;;;7.00;74.80;;;;;;4976154;28;20073;-67
2022/02/15 02:54:40;;;;;;;7.35;6.57;;;7.10;74.90;;;;;;4974302;28;20038;-66
2022/02/15 02:57:06;;;;;;;8.07;7.13;;;7.00;74.90;;;;;;4977752;28;20038;-66
2022/02/15 02:59:33;;;;;;;7.72;6.72;;;7.00;74.80;;;;;;4974072;28;20657;-66
2022/02/15 03:01:59;;;;;;;8.23;6.97;;;7.00;74.90;;;;;;4973445;28;20035;-65
2022/02/15 03:04:25;;;;;;;9.32;6.82;;;7.00;75.00;;;;;;4974103;28;20240;-67
2022/02/15 03:06:51;;;;;;;7.40;6.60;;;6.90;75.00;;;;;;4977564;28;20287;-66
2022/02/15 03:09:16;;;;;;;7.40;6.60;;;7.00;75.10;;;;;;4977246;28;20035;-66
2022/02/15 03:11:42;;;;;;;7.55;6.75;;;6.90;75.30;;;;;;4979285;28;20506;-66
2022/02/15 03:14:08;;;;;;;7.80;7.00;;;6.90;75.30;;;;;;4979162;28;20034;-65
2022/02/15 03:16:33;;;;;;;7.63;6.80;;;6.80;75.40;;;;;;4977121;28;20105;-67
2022/02/15 03:19:00;;;;;;;8.70;7.13;;;6.80;75.50;;;;;;4981198;28;20887;-66
2022/02/15 03:21:25;;;;;;;8.13;6.70;;;6.80;75.60;;;;;;4977377;28;20045;-67
2022/02/15 03:23:51;;;;;;;7.85;6.90;;;6.80;75.60;;;;;;4979687;28;20034;-67
2022/02/15 03:26:17;;;;;;;8.88;7.13;;;6.80;76.00;;;;;;4979021;28;20549;-66
2022/02/15 03:28:42;;;;;;;7.95;6.78;;;6.80;75.90;;;;;;4979853;28;20030;-66
2022/02/15 03:31:08;;;;;;;7.68;6.28;;;6.80;76.00;;;;;;4980272;28;20030;-66
2022/02/15 03:33:34;;;;;;;7.60;6.60;;;6.80;76.80;;;;;;4977945;28;20042;-67
2022/02/15 03:36:01;;;;;;;10.77;7.00;;;6.80;76.00;;;;;;4977444;28;20057;-66
2022/02/15 03:38:27;;;;;;;7.60;6.53;;;6.80;76.00;;;;;;4976431;28;20671;-66
2022/02/15 03:43:37;;;;;;;7.00;6.30;;;6.80;75.90;;;;;;4979824;28;20065;-67
2022/02/15 03:46:03;;;;;;;6.88;6.18;;;6.90;75.90;;;;;;4979167;28;20801;-67
2022/02/15 03:48:29;;;;;;;7.15;6.43;;;6.90;75.80;;;;;;4977651;28;20129;-66
2022/02/15 03:50:54;;;;;;;8.20;6.05;;;6.90;75.80;;;;;;4978630;28;20027;-66
2022/02/15 03:53:20;;;;;;;6.97;6.22;;;6.80;75.80;;;;;;4978634;28;20073;-66
2022/02/15 03:55:46;;;;;;;7.38;6.28;;;6.90;75.70;;;;;;4975710;28;20035;-65
2022/02/15 03:58:13;;;;;;;6.97;6.28;;;6.80;75.70;;;;;;4978475;28;20058;-67
2022/02/15 04:00:39;;;;;;;8.07;6.80;;;6.80;75.60;;;;;;4978018;28;20444;-66
2022/02/15 04:03:05;;;;;;;7.55;6.35;;;6.80;75.90;;;;;;4980075;28;20038;-66
2022/02/15 04:05:31;;;;;;;7.97;6.75;;;6.80;76.00;;;;;;4977777;28;20041;-66
2022/02/15 04:07:57;;;;;;;7.50;6.70;;;6.80;76.10;;;;;;4976291;28;20070;-66
2022/02/15 04:10:22;;;;;;;7.22;6.35;;;6.80;76.20;;;;;;4978141;28;20110;-66
2022/02/15 04:12:48;;;;;;;7.68;6.65;;;6.80;76.30;;;;;;4976131;28;20479;-66
2022/02/15 04:15:15;;;;;;;7.07;6.38;;;6.80;76.30;;;;;;4979049;28;20030;-66
2022/02/15 04:17:40;;;;;;;7.65;6.82;;;6.80;76.50;;;;;;4978280;28;20096;-66
2022/02/15 04:20:07;;;;;;;7.97;6.90;;;6.80;76.50;;;;;;4978179;28;20038;-66
2022/02/15 04:22:33;;;;;;;8.63;6.78;;;6.80;76.30;;;;;;4978544;28;20114;-67
2022/02/15 04:25:01;;;;;;;8.48;7.35;;;6.80;76.30;;;;;;4977630;28;20046;-67
2022/02/15 04:27:28;;;;;;;8.27;7.43;;;6.80;76.50;;;;;;4978620;28;20031;-66
2022/02/15 04:29:53;;;;;;;8.45;7.22;;;6.80;76.50;;;;;;4978742;28;20180;-67
2022/02/15 04:32:19;;;;;;;7.90;7.10;;;6.80;76.60;;;;;;4978441;28;20076;-66
2022/02/15 04:34:45;;;;;;;9.23;7.40;;;6.80;76.60;;;;;;4977640;28;20480;-67
2022/02/15 04:37:11;;;;;;;7.93;7.13;;;6.80;76.60;;;;;;4976907;28;20502;-66
2022/02/15 04:39:36;;;;;;;7.70;6.88;;;6.80;76.60;;;;;;4977327;28;20034;-66
2022/02/15 04:42:02;;;;;;;8.45;7.50;;;6.80;76.60;;;;;;4976652;28;20027;-66
2022/02/15 04:44:28;;;;;;;9.80;7.43;;;6.80;76.60;;;;;;4977605;28;20382;-66
2022/02/15 04:46:53;;;;;;;9.25;7.38;;;6.80;76.60;;;;;;4977525;28;20062;-67
2022/02/15 04:49:19;;;;;;;8.25;7.30;;;6.90;76.60;;;;;;4977854;28;20089;-66
2022/02/15 04:51:44;;;;;;;7.70;6.63;;;6.80;76.50;;;;;;4979062;28;20039;-66
2022/02/15 04:54:10;;;;;;;7.50;6.70;;;6.90;76.60;;;;;;4979580;28;20031;-67
2022/02/15 04:56:36;;;;;;;7.78;6.97;;;6.90;76.60;;;;;;4977029;28;20047;-67
2022/02/15 04:59:01;;;;;;;7.47;6.78;;;6.90;76.60;;;;;;4978057;28;20059;-66
2022/02/15 05:01:27;;;;;;;8.00;6.80;;;6.90;76.60;;;;;;4978616;28;20035;-67
2022/02/15 05:03:53;;;;;;;8.60;6.97;;;6.90;76.50;;;;;;4978130;28;20045;-66
2022/02/15 05:06:18;;;;;;;7.80;6.55;;;6.90;76.50;;;;;;4979154;28;20066;-67
2022/02/15 05:08:44;;;;;;;8.50;6.47;;;6.90;76.60;;;;;;4977307;28;20040;-67
2022/02/15 05:11:10;;;;;;;7.47;6.25;;;6.90;76.50;;;;;;4975924;28;20031;-67
2022/02/15 05:13:35;;;;;;;8.15;7.07;;;6.90;76.50;;;;;;4978699;28;20049;-67
2022/02/15 05:16:01;;;;;;;8.10;7.28;;;6.90;76.50;;;;;;4976909;28;20041;-67
2022/02/15 05:18:27;;;;;;;7.85;6.82;;;6.90;76.60;;;;;;4976325;28;20045;-67
2022/02/15 05:20:53;;;;;;;12.77;9.20;;;6.90;76.60;;;;;;4977680;28;20134;-67
2022/02/15 05:23:19;;;;;;;35.10;21.58;;;6.80;76.60;;;;;;4977582;28;20044;-66
2022/02/15 05:25:44;;;;;;;13.25;11.27;;;6.80;76.60;;;;;;4976438;28;20417;-67
2022/02/15 05:28:10;;;;;;;10.50;8.82;;;6.90;76.80;;;;;;4976418;28;20421;-67
2022/02/15 05:30:36;;;;;;;10.63;8.70;;;6.90;76.70;;;;;;4976590;28;20038;-66
2022/02/15 05:33:02;;;;;;;9.57;7.57;;;6.90;76.90;;;;;;4978748;28;20467;-66
2022/02/15 05:35:27;;;;;;;8.73;7.82;;;6.90;76.80;;;;;;4977924;28;20030;-67
2022/02/15 05:37:53;;;;;;;8.35;7.15;;;6.90;76.70;;;;;;4980034;28;20031;-66
2022/02/15 05:40:19;;;;;;;10.07;8.20;;;6.80;76.80;;;;;;4978085;28;20035;-66
2022/02/15 05:42:44;;;;;;;10.48;7.80;;;6.80;76.80;;;;;;4976957;28;20124;-67
2022/02/15 05:45:11;;;;;;;9.43;7.90;;;6.90;77.00;;;;;;4978568;28;20057;-66
2022/02/15 05:47:36;;;;;;;10.23;8.32;;;6.90;77.00;;;;;;4976045;28;20117;-66
2022/02/15 05:52:47;;;;;;;9.95;8.68;;;6.80;77.00;;;;;;4978066;28;20089;-66
2022/02/15 05:55:14;;;;;;;11.82;9.30;;;6.90;77.00;;;;;;4977926;28;20034;-66
2022/02/15 05:57:41;;;;;;;11.13;8.70;;;6.90;77.00;;;;;;4977467;28;20062;-66
2022/02/15 06:00:08;;;;;;;10.98;8.88;;;6.90;77.20;;;;;;4976548;28;20576;-67
2022/02/15 06:02:34;;;;;;;11.57;9.50;;;6.90;77.20;;;;;;4978069;28;20085;-66
2022/02/15 06:04:59;;;;;;;9.82;8.23;;;6.90;77.20;;;;;;4975783;28;20635;-67
2022/02/15 06:07:25;;;;;;;9.98;8.35;;;6.80;77.10;;;;;;4976288;28;20038;-66
2022/02/15 06:09:50;;;;;;;10.57;8.25;;;6.90;77.20;;;;;;4977036;28;20117;-66
2022/02/15 06:12:16;;;;;;;10.32;8.52;;;6.90;77.10;;;;;;4975402;28;20077;-67
2022/02/15 06:14:42;;;;;;;10.52;8.27;;;6.90;77.10;;;;;;4976518;28;20050;-68
2022/02/15 06:17:07;;;;;;;10.30;8.73;;;6.90;77.00;;;;;;4977513;28;20457;-66
2022/02/15 06:19:33;;;;;;;10.15;8.23;;;6.90;77.10;;;;;;4977940;28;20053;-65
2022/02/15 06:21:59;;;;;;;12.23;10.52;;;6.90;77.20;;;;;;4975645;28;20034;-66
2022/02/15 06:24:24;;;;;;;11.07;8.95;;;6.90;78.00;;;;;;4974213;28;20121;-66
2022/02/15 06:26:50;;;;;;;12.80;9.75;;;6.90;77.20;;;;;;4975157;28;20490;-67
2022/02/15 06:29:16;;;;;;;13.15;10.02;;;6.90;77.30;;;;;;4978065;28;20068;-66
2022/02/15 06:31:42;;;;;;;11.68;9.48;;;6.90;77.20;;;;;;4975924;28;20614;-66
2022/02/15 06:34:08;;;;;;;10.07;8.13;;;7.00;77.20;;;;;;4977797;28;20026;-66
2022/02/15 06:36:34;;;;;;;9.70;7.88;;;6.90;77.20;;;;;;4975193;28;20260;-67
2022/02/15 06:39:00;;;;;;;8.80;7.63;;;6.90;77.10;;;;;;4975283;28;20119;-66
2022/02/15 06:41:25;;;;;;;9.63;7.85;;;7.00;77.00;;;;;;4975466;28;20049;-66
2022/02/15 06:43:52;;;;;;;10.02;8.23;;;7.00;77.00;;;;;;4976593;28;20095;-66
2022/02/15 06:46:18;;;;;;;9.57;7.82;;;7.00;76.90;;;;;;4978233;28;20097;-66
2022/02/15 06:48:44;;;;;;;11.82;8.88;;;7.00;77.00;;;;;;4976712;28;20037;-65
2022/02/15 06:51:09;;;;;;;13.23;8.77;;;6.90;77.00;;;;;;4977241;28;20038;-67
2022/02/15 06:53:35;;;;;;;10.63;8.73;;;6.90;77.00;;;;;;4977627;28;20042;-66
2022/02/15 06:56:01;;;;;;;13.73;9.13;;;6.90;77.00;;;;;;4975488;28;20035;-66
2022/02/15 06:58:27;;;;;;;12.30;9.40;;;6.90;77.20;;;;;;4975050;28;20115;-65
2022/02/15 07:00:52;;;;;;;15.95;11.30;;;6.90;77.20;;;;;;4975078;28;20109;-66
2022/02/15 07:03:18;;;;;;;13.15;9.27;;;6.90;77.40;;;;;;4975746;28;20050;-66
2022/02/15 07:05:43;;;;;;;13.07;10.35;;;6.90;77.50;;;;;;4977630;28;20166;-66
2022/02/15 07:08:09;;;;;;;12.40;9.35;;;6.90;77.50;;;;;;4975995;28;20118;-66
2022/02/15 07:10:36;;;;;;;13.45;10.68;;;6.90;77.50;;;;;;4975552;28;20138;-66
2022/02/15 07:13:02;;;;;;;11.30;9.45;;;6.90;77.50;;;;;;4977152;28;20061;-66
2022/02/15 07:15:28;;;;;;;12.00;9.55;;;6.90;77.60;;;;;;4974857;28;20126;-67
2022/02/15 07:17:54;;;;;;;13.13;9.68;;;6.90;77.50;;;;;;4978122;28;20093;-66
2022/02/15 07:20:20;;;;;;;11.70;8.95;;;6.90;77.50;;;;;;4975959;28;20077;-66
2022/02/15 07:22:45;;;;;;;12.90;9.68;;;6.90;77.50;;;;;;4976287;28;20089;-65
2022/02/15 07:25:11;;;;;;;11.10;9.07;;;6.90;77.50;;;;;;4975212;28;20031;-66
2022/02/15 07:27:37;;;;;;;13.57;10.63;;;7.00;77.70;;;;;;4976601;28;20547;-66
2022/02/15 07:30:04;;;;;;;10.40;8.45;;;7.00;77.70;;;;;;4976350;28;20138;-66
2022/02/15 07:32:29;;;;;;;13.25;10.00;;;7.00;78.60;;;;;;4974911;28;20045;-67
2022/02/15 07:34:56;;;;;;;11.88;8.52;;;7.00;77.70;;;;;;4974894;28;20043;-67
2022/02/15 07:37:22;;;;;;;10.63;8.73;;;7.00;77.70;;;;;;4976288;28;20038;-65
2022/02/15 07:39:47;;;;;;;11.77;9.07;;;7.00;77.60;;;;;;4977057;28;20409;-66
2022/02/15 07:42:13;;;;;;;12.60;9.43;;;7.10;77.50;;;;;;4976769;28;20371;-66
2022/02/15 07:44:39;;;;;;;12.25;7.65;;;7.10;77.50;;;;;;4976577;28;20053;-66
2022/02/15 07:47:05;;;;;;;11.23;8.23;;;7.10;77.50;;;;;;4975848;28;20069;-67
2022/02/15 07:49:31;;;;;;;13.15;8.00;;;7.10;77.50;;;;;;4975672;28;20086;-66
2022/02/15 07:51:58;;;;;;;9.60;7.53;;;7.10;77.50;;;;;;4980129;28;20113;-66
2022/02/15 07:54:23;;;;;;;10.63;7.75;;;7.20;77.50;;;;;;4978930;28;20118;-66
2022/02/15 07:56:49;;;;;;;9.98;7.80;;;7.20;77.50;;;;;;4981702;28;20127;-66
2022/02/15 07:59:15;;;;;;;10.48;8.02;;;7.20;77.50;;;;;;4978644;28;20518;-65
2022/02/15 08:01:41;;;;;;;12.23;8.52;;;7.20;77.50;;;;;;4978990;28;20073;-67
2022/02/15 08:04:08;;;;;;;11.77;8.32;;;7.30;77.50;;;;;;4979794;28;20266;-67
2022/02/15 08:06:36;;;;;;;10.20;7.95;;;7.30;77.60;;;;;;4980218;28;20061;-67
2022/02/15 08:09:03;;;;;;;10.23;7.80;;;7.30;77.30;;;;;;4979489;28;20031;-67
2022/02/15 08:11:30;;;;;;;10.63;7.80;;;7.30;77.40;;;;;;4978771;28;20030;-66
2022/02/15 08:13:59;;;;;;;8.50;7.13;;;7.30;77.50;;;;;;4979386;28;20037;-66
2022/02/15 08:16:25;;;;;;;11.68;7.57;;;7.30;77.30;;;;;;4978681;28;20092;-67
2022/02/15 08:18:51;;;;;;;8.68;7.35;;;7.30;77.30;;;;;;4979066;28;20093;-66
2022/02/15 08:21:17;;;;;;;11.20;7.68;;;7.30;77.40;;;;;;4977490;28;21124;-66
2022/02/15 08:23:43;;;;;;;9.02;7.53;;;7.40;77.40;;;;;;4979007;28;20064;-67
2022/02/15 08:26:08;;;;;;;10.00;8.05;;;7.40;77.30;;;;;;4979901;28;20517;-66
2022/02/15 08:28:40;;;;;;;10.02;7.43;;;7.50;77.20;;;;;;4979424;28;20109;-66
2022/02/15 08:31:06;;;;;;;9.40;7.22;;;7.50;77.20;;;;;;4977484;28;20042;-66
2022/02/15 08:33:31;;;;;;;8.98;7.30;;;7.50;77.20;;;;;;4979815;28;20034;-67
2022/02/15 08:35:57;;;;;;;11.32;7.55;;;7.50;77.10;;;;;;4977150;28;20045;-66
2022/02/15 08:38:23;;;;;;;10.00;7.25;;;7.50;77.30;;;;;;4979899;28;20050;-67
2022/02/15 08:40:48;;;;;;;10.07;7.53;;;7.50;77.00;;;;;;4976798;28;20042;-66
2022/02/15 08:43:14;;;;;;;11.75;7.38;;;7.60;77.10;;;;;;4977730;28;20121;-67
2022/02/15 08:45:40;;;;;;;9.30;7.35;;;7.60;77.00;;;;;;4980892;28;20104;-67
2022/02/15 08:48:08;;;;;;;8.75;7.63;;;7.60;77.00;;;;;;4978067;28;20042;-66
2022/02/15 08:50:34;;;;;;;10.75;7.78;;;7.60;76.80;;;;;;4978336;28;20070;-66
2022/02/15 08:52:59;;;;;;;10.82;8.00;;;7.60;76.80;;;;;;4979112;28;20058;-67
2022/02/15 08:55:25;;;;;;;9.32;7.53;;;7.70;76.80;;;;;;4977826;28;20060;-66
2022/02/15 08:57:51;;;;;;;10.15;7.38;;;7.70;76.80;;;;;;4980164;28;20038;-66
2022/02/15 09:00:17;;;;;;;10.30;7.45;;;7.70;76.80;;;;;;4976932;28;20035;-66
2022/02/15 09:02:43;;;;;;;9.10;7.30;;;7.80;76.80;;;;;;4972614;28;20062;-66
2022/02/15 09:05:09;;;;;;;8.43;6.53;;;7.80;76.80;;;;;;4977963;28;20065;-67
2022/02/15 09:07:35;;;;;;;8.40;6.57;;;7.80;76.50;;;;;;4977919;28;20045;-66
2022/02/15 09:10:01;;;;;;;10.63;7.22;;;7.80;76.50;;;;;;4977878;28;20034;-66
2022/02/15 09:12:26;;;;;;;8.77;6.47;;;7.80;76.30;;;;;;4979634;28;20043;-66
2022/02/15 09:14:52;;;;;;;7.63;5.93;;;7.90;76.20;;;;;;4979284;28;20038;-66
2022/02/15 09:17:18;;;;;;;7.13;5.90;;;7.90;76.00;;;;;;4979751;28;20070;-67
2022/02/15 09:19:43;;;;;;;8.13;6.50;;;7.90;76.00;;;;;;4977551;28;20030;-66
2022/02/15 09:22:09;;;;;;;7.82;6.50;;;7.90;76.00;;;;;;4980825;28;20330;-67
2022/02/15 09:24:34;;;;;;;8.70;6.53;;;7.90;75.80;;;;;;4977705;28;20494;-66
2022/02/15 09:27:00;;;;;;;8.85;6.15;;;8.00;76.60;;;;;;4979081;28;20046;-66
2022/02/15 09:29:26;;;;;;;8.70;6.22;;;8.00;75.60;;;;;;4977815;28;20038;-66
2022/02/15 09:31:52;;;;;;;7.78;6.18;;;8.00;75.60;;;;;;4980262;28;20043;-67
2022/02/15 09:34:23;;;;;;;6.70;6.00;;;8.10;75.60;;;;;;4978373;28;20027;-65
2022/02/15 09:36:50;;;;;;;7.20;6.25;;;8.10;75.50;;;;;;4978632;28;20051;-66
2022/02/15 09:39:16;;;;;;;7.28;6.32;;;8.10;75.40;;;;;;4976782;28;20442;-66
2022/02/15 09:41:42;;;;;;;7.60;6.05;;;8.10;75.30;;;;;;4978885;28;20538;-66
2022/02/15 09:44:08;;;;;;;7.55;5.97;;;8.10;75.20;;;;;;4981572;28;20030;-66
2022/02/15 09:46:34;;;;;;;7.50;6.63;;;8.10;75.10;;;;;;4978277;28;20572;-66
2022/02/15 09:49:01;;;;;;;8.88;7.05;;;8.10;75.10;;;;;;4991709;28;20022;-65
2022/02/15 09:51:27;;;;;;;7.50;6.20;;;8.20;75.10;;;;;;4977101;28;20038;-66
2022/02/15 09:53:53;;;;;;;7.13;5.85;;;8.20;75.10;;;;;;4979785;28;20050;-66
2022/02/15 09:56:19;;;;;;;7.47;5.72;;;8.30;75.10;;;;;;4977692;28;20070;-66
2022/02/15 09:58:45;;;;;;;7.65;6.15;;;8.30;74.80;;;;;;4978010;28;20064;-66
2022/02/15 10:01:16;;;;;;;7.47;6.05;;;8.30;75.40;;;;;;4976159;28;20450;-67
2022/02/15 10:04:00;;;;;;;9.77;5.95;;;8.30;74.40;;;;;;4977878;28;20052;-66
2022/02/15 10:06:30;;;;;;;8.48;6.30;;;8.40;74.30;;;;;;4978353;28;20039;-66
2022/02/15 10:08:58;;;;;;;6.35;5.75;;;8.40;74.20;;;;;;4978458;28;20035;-66
2022/02/15 10:11:34;;;;;;;7.78;6.32;;;8.40;74.20;;;;;;4979742;28;20061;-66
2022/02/15 10:14:00;;;;;;;8.80;6.50;;;8.40;74.00;;;;;;4976337;28;20089;-66
2022/02/15 10:16:25;;;;;;;7.03;5.88;;;8.40;74.00;;;;;;4990811;28;20030;-67
2022/02/15 10:18:58;;;;;;;8.02;6.20;;;8.40;74.10;;;;;;4978876;28;20041;-67
2022/02/15 10:21:28;;;;;;;8.40;6.13;;;8.40;74.00;;;;;;4977518;28;20133;-66
2022/02/15 10:23:54;;;;;;;10.27;6.25;;;8.40;74.10;;;;;;4978474;28;20034;-67
2022/02/15 10:26:20;;;;;;;9.10;6.30;;;8.50;74.00;;;;;;4979173;28;20027;-66
2022/02/15 10:28:46;;;;;;;6.47;5.55;;;8.50;74.00;;;;;;4991553;28;20042;-67
2022/02/15 10:31:13;;;;;;;7.60;6.40;;;8.50;73.90;;;;;;4978147;28;20064;-66
2022/02/15 10:33:45;;;;;;;8.07;6.32;;;8.60;73.90;;;;;;4978620;28;20519;-67
2022/02/15 10:36:13;;;;;;;9.82;6.47;;;8.60;73.80;;;;;;4976315;28;20413;-67
2022/02/15 10:38:43;;;;;;;6.20;5.28;;;8.70;73.60;;;;;;4976177;28;20077;-67
2022/02/15 10:41:16;;;;;;;7.85;6.07;;;8.60;74.30;;;;;;4976326;28;20147;-67
2022/02/15 10:43:48;;;;;;;6.80;4.80;;;8.70;73.50;;;;;;4976299;28;20038;-66
2022/02/15 10:46:19;;;;;;;4.70;3.95;;;8.70;73.60;;;;;;4978055;28;20524;-67
2022/02/15 10:48:46;;;;;;;4.88;3.75;;;8.80;73.10;;;;;;4991125;28;20138;-67
2022/02/15 10:51:13;;;;;;;5.05;3.42;;;8.80;72.80;;;;;;4977691;28;20709;-67
2022/02/15 10:53:38;;;;;;;4.35;3.70;;;8.80;72.80;;;;;;4977280;28;20592;-65
2022/02/15 10:56:05;;;;;;;4.45;3.63;;;8.80;72.70;;;;;;4978653;28;20066;-64
2022/02/15 10:58:32;;;;;;;4.85;3.67;;;8.90;72.60;;;;;;4976993;28;20049;-67
2022/02/15 11:01:00;;;;;;;4.03;3.33;;;8.90;72.40;;;;;;4978560;28;20035;-67
2022/02/15 11:03:30;;;;;;;3.58;3.28;;;8.90;72.20;;;;;;4977178;28;20529;-66
2022/02/15 11:05:57;;;;;;;3.58;3.00;;;8.90;72.00;;;;;;4977633;28;20069;-66
2022/02/15 11:08:23;;;;;;;3.58;2.83;;;9.00;71.90;;;;;;4977591;28;20050;-67
2022/02/15 11:11:09;;;;;;;5.00;3.13;;;8.90;71.80;;;;;;4975056;28;20031;-66
2022/02/15 11:13:36;;;;;;;3.75;2.90;;;8.90;71.60;;;;;;4977963;28;20031;-66
2022/02/15 11:16:16;;;;;;;5.32;2.88;;;8.90;71.70;;;;;;4978705;28;20030;-66
2022/02/15 11:18:45;;;;;;;2.92;2.63;;;8.90;71.50;;;;;;4978915;28;20207;-66
2022/02/15 11:21:25;;;;;;;2.92;2.40;;;9.00;71.40;;;;;;4976104;28;20212;-67
2022/02/15 11:23:59;;;;;;;3.65;2.30;;;9.00;71.20;;;;;;4978621;28;20034;-67
2022/02/15 11:26:35;;;;;;;4.10;2.30;;;9.00;71.40;;;;;;4980066;28;20039;-66
2022/02/15 11:29:02;;;;;;;3.30;2.60;;;9.00;71.10;;;;;;4982014;28;20454;-66
2022/02/15 11:31:27;;;;;;;3.00;2.70;;;9.00;71.20;;;;;;4980129;28;20430;-67
2022/02/15 11:33:54;;;;;;;3.92;2.97;;;9.00;71.20;;;;;;4980172;28;20039;-66
2022/02/15 11:36:23;;;;;;;4.32;2.40;;;8.90;71.30;;;;;;4979656;28;20030;-66
2022/02/15 11:38:55;;;;;;;2.13;1.92;;;8.90;71.80;;;;;;4994842;28;20735;-65
2022/02/15 11:41:21;;;;;;;5.25;2.17;;;8.70;72.00;;;;;;4979589;28;20111;-66
2022/02/15 11:43:58;;;;;;;2.33;1.90;;;8.60;72.10;;;;;;4980927;28;20573;-66
2022/02/15 11:46:32;;;;;;;3.40;1.48;;;8.40;73.00;;;;;;4980267;28;20043;-65
2022/02/15 11:49:15;;;;;;;1.38;1.20;;;8.10;73.20;;;;;;4979366;28;20030;-66
2022/02/15 11:51:42;;;;;;;2.47;1.98;;;8.00;74.30;;;;;;4979490;28;20506;-66
2022/02/15 11:54:16;;;;;;;2.65;1.52;;;7.80;73.90;;;;;;4981058;28;20066;-67
2022/02/15 11:56:53;;;;;;;1.92;1.23;;;7.70;75.30;;;;;;4981704;28;20493;-66
2022/02/15 11:59:25;;;;;;;2.28;1.40;;;7.70;75.90;;;;;;4979511;28;20042;-66
2022/02/15 12:01:55;;;;;;;2.50;1.88;;;7.60;76.10;;;;;;4981959;28;20031;-66
2022/02/15 12:04:21;;;;;;;2.83;2.15;;;7.60;76.40;;;;;;4979873;28;20379;-66
2022/02/15 12:06:48;;;;;;;2.17;1.83;;;7.50;76.40;;;;;;4979252;28;20129;-66
2022/02/15 12:09:15;;;;;;;3.42;2.08;;;7.60;76.70;;;;;;4978679;28;20110;-64
2022/02/15 12:11:43;;;;;;;4.93;2.38;;;7.60;77.30;;;;;;4982250;28;20049;-65
2022/02/15 12:14:11;;;;;;;3.60;2.10;;;7.60;77.50;;;;;;4980728;28;20034;-65
2022/02/15 12:16:40;;;;;;;2.50;2.28;;;7.70;78.00;;;;;;4980452;28;20502;-66
2022/02/15 12:19:07;;;;;;;2.70;2.50;;;7.70;78.00;;;;;;4980260;28;20092;-66
2022/02/15 12:21:42;;;;;;;4.10;3.40;;;7.80;78.00;;;;;;4978028;28;20493;-65
2022/02/15 12:24:07;;;;;;;10.50;6.68;;;7.90;78.70;;;;;;4979370;28;20196;-65
2022/02/15 12:26:42;;;;;;;2.00;1.77;;;7.90;78.20;;;;;;4979863;28;20572;-65
2022/02/15 12:29:09;;;;;;;6.55;3.55;;;8.00;78.50;;;;;;4978737;28;20547;-66
2022/02/15 12:31:36;;;;;;;16.85;8.35;;;8.00;77.80;;;;;;4980588;28;20058;-66
2022/02/15 12:34:04;;;;;;;2.42;2.20;;;8.10;77.90;;;;;;4980579;28;20034;-66
2022/02/15 12:36:30;;;;;;;2.25;2.05;;;8.20;78.00;;;;;;4984222;28;20050;-65
2022/02/15 12:38:56;;;;;;;4.63;3.78;;;8.30;78.40;;;;;;4979883;28;20031;-65
2022/02/15 12:41:23;;;;;;;2.47;2.25;;;8.40;78.20;;;;;;4980059;28;20042;-64
2022/02/15 12:43:57;;;;;;;2.15;1.90;;;8.40;78.20;;;;;;4980889;28;20042;-65
2022/02/15 12:46:23;;;;;;;1.65;1.20;;;8.50;78.50;;;;;;4979088;28;20043;-67
2022/02/15 12:48:49;;;;;;;1.77;1.20;;;8.50;77.80;;;;;;4980145;28;20403;-65
2022/02/15 12:51:15;;;;;;;1.00;0.90;;;8.50;76.30;;;;;;4977920;28;20467;-66
2022/02/15 12:53:52;;;;;;;1.17;0.95;;;8.60;75.90;;;;;;4979682;28;20061;-64
2022/02/15 12:56:22;;;;;;;2.15;1.08;;;8.60;74.60;;;;;;4977868;28;20505;-65